Time;durP1;ratioP1;P1;durP2;ratioP2;P2;SDS_P1;SDS_P2;PMS_P1;PMS_P2;Temp;Humidity;BMP_temperature;BMP_pressure;BME280_temperature;BME280_humidity;BME280_pressure;Samples;Min_cycle;Max_cycle;Signal;HPM_P1;HPM_P2
2022/11/27 00:01:46;;;;;;;51.45;15.43;;;;;;;;;;5083540;28;20422;-86
2022/11/27 00:04:19;;;;;;;54.30;15.30;;;;;;;;;;5079857;28;20878;-86
2022/11/27 00:06:47;;;;;;;46.63;14.82;;;;;;;;;;5080555;28;20417;-86
2022/11/27 00:09:19;;;;;;;57.75;14.88;;;;;;;;;;5080573;28;20995;-85
2022/11/27 00:11:47;;;;;;;46.43;14.93;;;;;;;;;;5073958;28;20412;-86
2022/11/27 00:14:22;;;;;;;54.70;15.53;;;;;;;;;;5082537;28;20427;-85
2022/11/27 00:16:54;;;;;;;49.05;15.52;;;;;;;;;;5081578;28;20428;-85
2022/11/27 00:19:28;;;;;;;53.97;15.13;;;;;;;;;;5082043;28;20416;-86
2022/11/27 00:22:00;;;;;;;53.63;15.43;;;;;;;;;;5073305;28;20423;-86
2022/11/27 00:24:33;;;;;;;48.77;16.37;;;;;;;;;;5084003;28;20420;-86
2022/11/27 00:27:01;;;;;;;49.60;15.20;;;;;;;;;;5084372;28;20430;-86
2022/11/27 00:29:35;;;;;;;43.70;14.70;;;;;;;;;;5081988;28;20481;-86
2022/11/27 00:32:08;;;;;;;59.63;15.30;;;;;;;;;;5083529;28;20428;-85
2022/11/27 00:34:40;;;;;;;50.17;15.25;;;;;;;;;;5081170;28;20900;-85
2022/11/27 00:37:14;;;;;;;49.20;15.20;;;;;;;;;;5081036;28;20421;-83
2022/11/27 00:39:47;;;;;;;61.72;15.32;;;;;;;;;;5083341;28;20924;-86
2022/11/27 00:42:14;;;;;;;49.67;14.73;;;;;;;;;;5082396;28;20777;-85
2022/11/27 00:44:44;;;;;;;48.88;16.25;;;;;;;;;;5080629;28;20427;-85
2022/11/27 00:47:12;;;;;;;47.97;14.93;;;;;;;;;;5083116;28;20409;-86
2022/11/27 00:49:45;;;;;;;50.70;15.27;;;;;;;;;;5081101;28;20425;-85
2022/11/27 00:52:18;;;;;;;56.03;15.95;;;;;;;;;;5089841;28;20431;-86
2022/11/27 00:54:51;;;;;;;48.42;14.85;;;;;;;;;;5082185;28;20427;-83
2022/11/27 00:57:18;;;;;;;42.63;14.23;;;;;;;;;;5080131;28;20423;-83
2022/11/27 00:59:52;;;;;;;51.65;14.48;;;;;;;;;;5084977;28;20423;-84
2022/11/27 01:02:25;;;;;;;55.22;14.02;;;;;;;;;;5082495;28;20416;-86
2022/11/27 01:04:58;;;;;;;46.75;14.05;;;;;;;;;;5082252;28;20423;-85
2022/11/27 01:07:26;;;;;;;49.97;14.00;;;;;;;;;;5072449;28;20408;-85
2022/11/27 01:09:54;;;;;;;46.88;14.32;;;;;;;;;;5080774;28;20420;-85
2022/11/27 01:12:21;;;;;;;49.80;14.55;;;;;;;;;;5072099;28;20420;-85
2022/11/27 01:14:49;;;;;;;46.60;14.00;;;;;;;;;;5079759;28;20874;-85
2022/11/27 01:17:23;;;;;;;54.92;14.95;;;;;;;;;;5083554;28;20448;-86
2022/11/27 01:19:56;;;;;;;47.47;14.55;;;;;;;;;;5085468;28;20410;-84
2022/11/27 01:22:29;;;;;;;44.30;14.35;;;;;;;;;;5077448;28;20488;-85
2022/11/27 01:25:01;;;;;;;48.75;14.50;;;;;;;;;;5079766;28;20434;-85
2022/11/27 01:27:34;;;;;;;48.75;14.23;;;;;;;;;;5081918;28;21362;-86
2022/11/27 01:30:08;;;;;;;49.17;14.32;;;;;;;;;;5082490;28;20408;-85
2022/11/27 01:32:42;;;;;;;52.28;14.32;;;;;;;;;;5074619;28;20426;-86
2022/11/27 01:35:09;;;;;;;48.45;13.60;;;;;;;;;;5080264;28;20411;-85
2022/11/27 01:37:37;;;;;;;47.15;13.50;;;;;;;;;;5071688;28;20419;-85
2022/11/27 01:40:10;;;;;;;48.42;14.23;;;;;;;;;;5077724;28;20883;-86
2022/11/27 01:42:43;;;;;;;42.28;14.13;;;;;;;;;;5077538;28;20423;-86
2022/11/27 01:45:17;;;;;;;46.88;13.90;;;;;;;;;;5079027;28;20423;-85
2022/11/27 01:47:48;;;;;;;43.38;13.88;;;;;;;;;;5078262;28;20422;-86
2022/11/27 01:50:22;;;;;;;54.33;14.60;;;;;;;;;;5079502;28;20427;-86
2022/11/27 01:52:56;;;;;;;52.30;15.07;;;;;;;;;;5083052;28;20417;-86
2022/11/27 01:55:32;;;;;;;48.80;14.70;;;;;;;;;;5080350;28;20417;-85
2022/11/27 01:58:08;;;;;;;39.80;13.57;;;;;;;;;;5080675;28;20421;-85
2022/11/27 02:00:36;;;;;;;48.27;14.67;;;;;;;;;;5080596;28;20420;-86
2022/11/27 02:03:11;;;;;;;47.63;14.10;;;;;;;;;;5078086;28;20895;-85
2022/11/27 02:05:43;;;;;;;48.95;14.43;;;;;;;;;;5083367;28;21266;-85
2022/11/27 02:08:17;;;;;;;45.60;14.23;;;;;;;;;;5077815;28;20419;-86
2022/11/27 02:10:52;;;;;;;51.40;14.05;;;;;;;;;;5082525;28;20423;-86
2022/11/27 02:13:28;;;;;;;51.83;14.57;;;;;;;;;;5079677;28;20912;-86
2022/11/27 02:16:05;;;;;;;38.50;13.32;;;;;;;;;;5086671;28;20937;-84
2022/11/27 02:18:43;;;;;;;58.47;14.65;;;;;;;;;;5079824;28;20423;-85
2022/11/27 02:21:14;;;;;;;48.58;14.43;;;;;;;;;;5080753;28;20414;-86
2022/11/27 02:23:53;;;;;;;75.83;14.87;;;;;;;;;;5082699;28;20454;-86
2022/11/27 02:26:44;;;;;;;36.08;13.88;;;;;;;;;;5079224;28;20422;-85
2022/11/27 02:29:20;;;;;;;54.53;14.90;;;;;;;;;;5086284;28;20431;-86
2022/11/27 02:31:57;;;;;;;49.33;14.02;;;;;;;;;;5095823;28;20918;-86
2022/11/27 02:34:43;;;;;;;43.25;14.20;;;;;;;;;;5081051;28;20746;-86
2022/11/27 02:37:18;;;;;;;37.65;13.63;;;;;;;;;;5079547;28;20894;-86
2022/11/27 02:39:55;;;;;;;42.55;13.68;;;;;;;;;;5078539;28;20420;-85
2022/11/27 02:42:23;;;;;;;44.85;13.73;;;;;;;;;;5082462;28;20399;-86
2022/11/27 02:44:59;;;;;;;32.70;12.63;;;;;;;;;;5078659;28;20877;-85
2022/11/27 02:47:32;;;;;;;37.67;13.30;;;;;;;;;;5083105;28;20424;-85
2022/11/27 02:50:07;;;;;;;40.72;14.07;;;;;;;;;;5079399;28;20792;-86
2022/11/27 02:52:41;;;;;;;39.72;14.05;;;;;;;;;;5080133;28;20429;-86
2022/11/27 02:55:11;;;;;;;39.13;13.77;;;;;;;;;;5079966;28;20404;-86
2022/11/27 02:57:39;;;;;;;34.97;13.15;;;;;;;;;;5077446;28;20427;-86
2022/11/27 03:00:14;;;;;;;39.72;13.48;;;;;;;;;;5079432;28;20429;-86
2022/11/27 03:02:52;;;;;;;37.03;12.98;;;;;;;;;;5080793;28;20430;-85
2022/11/27 03:05:26;;;;;;;39.75;13.75;;;;;;;;;;5080650;28;20419;-86
2022/11/27 03:08:02;;;;;;;38.58;13.60;;;;;;;;;;5075049;28;20425;-85
2022/11/27 03:10:36;;;;;;;37.92;13.27;;;;;;;;;;5076317;28;20421;-86
2022/11/27 03:13:09;;;;;;;41.70;13.63;;;;;;;;;;5080888;28;20414;-85
2022/11/27 03:15:46;;;;;;;36.60;13.43;;;;;;;;;;5078438;28;20740;-86
2022/11/27 03:18:22;;;;;;;33.92;12.88;;;;;;;;;;5093306;28;20418;-85
2022/11/27 03:21:00;;;;;;;34.53;12.87;;;;;;;;;;5077842;28;20420;-86
2022/11/27 03:23:33;;;;;;;31.85;13.15;;;;;;;;;;5076629;28;20418;-85
2022/11/27 03:26:06;;;;;;;33.80;12.40;;;;;;;;;;5075842;28;20427;-86
2022/11/27 03:28:39;;;;;;;36.83;12.40;;;;;;;;;;5075458;28;20431;-86
2022/11/27 03:31:13;;;;;;;38.60;12.75;;;;;;;;;;5082705;28;20425;-83
2022/11/27 03:33:46;;;;;;;36.47;13.48;;;;;;;;;;5079465;28;20422;-86
2022/11/27 03:36:20;;;;;;;32.33;12.95;;;;;;;;;;5096956;28;20432;-86
2022/11/27 03:38:54;;;;;;;39.78;12.82;;;;;;;;;;5069877;28;20439;-85
2022/11/27 03:41:26;;;;;;;39.28;12.90;;;;;;;;;;5076522;28;20419;-85
2022/11/27 03:44:05;;;;;;;39.33;13.52;;;;;;;;;;5096032;28;20420;-86
2022/11/27 03:46:46;;;;;;;41.50;13.48;;;;;;;;;;5092631;28;20420;-85
2022/11/27 03:49:24;;;;;;;45.33;13.38;;;;;;;;;;5077092;28;20430;-84
2022/11/27 03:52:03;;;;;;;38.67;12.68;;;;;;;;;;5087528;28;20433;-86
2022/11/27 03:54:41;;;;;;;34.72;13.23;;;;;;;;;;5077391;28;20454;-85
2022/11/27 03:57:17;;;;;;;33.80;12.95;;;;;;;;;;5079224;28;20419;-83
2022/11/27 03:59:51;;;;;;;44.75;13.32;;;;;;;;;;5083299;28;20421;-86
2022/11/27 04:02:30;;;;;;;36.20;13.90;;;;;;;;;;5080474;28;20440;-85
2022/11/27 04:05:03;;;;;;;37.15;14.10;;;;;;;;;;5086531;28;20429;-86
2022/11/27 04:07:30;;;;;;;36.60;12.93;;;;;;;;;;5073627;28;20893;-85
2022/11/27 04:10:04;;;;;;;36.42;12.75;;;;;;;;;;5080336;28;20411;-85
2022/11/27 04:12:36;;;;;;;32.03;12.80;;;;;;;;;;5075279;28;20438;-85
2022/11/27 04:15:10;;;;;;;33.20;13.10;;;;;;;;;;5072549;28;20423;-85
2022/11/27 04:17:44;;;;;;;37.27;13.07;;;;;;;;;;5077295;28;20506;-86
2022/11/27 04:20:17;;;;;;;34.08;13.10;;;;;;;;;;5068138;28;20424;-85
2022/11/27 04:22:50;;;;;;;29.77;12.18;;;;;;;;;;5077728;28;20413;-85
2022/11/27 04:25:22;;;;;;;34.60;12.30;;;;;;;;;;5075498;28;20438;-86
2022/11/27 04:27:50;;;;;;;37.72;13.45;;;;;;;;;;5069078;28;20419;-86
2022/11/27 04:30:23;;;;;;;32.22;12.13;;;;;;;;;;5075917;28;20431;-85
2022/11/27 04:32:52;;;;;;;27.10;12.75;;;;;;;;;;5075975;28;20423;-86
2022/11/27 04:35:25;;;;;;;46.35;21.42;;;;;;;;;;5086184;28;20970;-86
2022/11/27 04:37:58;;;;;;;35.17;15.75;;;;;;;;;;5077974;28;20417;-86
2022/11/27 04:40:31;;;;;;;33.70;14.18;;;;;;;;;;5081324;28;20738;-86
2022/11/27 04:42:59;;;;;;;33.47;13.00;;;;;;;;;;5071648;28;20415;-85
2022/11/27 04:45:32;;;;;;;34.70;13.23;;;;;;;;;;5079813;28;20783;-85
2022/11/27 04:48:06;;;;;;;30.15;13.40;;;;;;;;;;5081274;28;20494;-85
2022/11/27 04:50:39;;;;;;;30.63;12.63;;;;;;;;;;5078573;28;20419;-86
2022/11/27 04:53:12;;;;;;;33.40;12.80;;;;;;;;;;5086641;28;20420;-86
2022/11/27 04:55:44;;;;;;;32.72;12.43;;;;;;;;;;5073035;28;20419;-85
2022/11/27 04:58:17;;;;;;;31.90;13.15;;;;;;;;;;5080460;28;20415;-86
2022/11/27 05:00:45;;;;;;;28.30;12.23;;;;;;;;;;5081112;28;20415;-86
2022/11/27 05:03:19;;;;;;;35.33;12.80;;;;;;;;;;5085925;28;20413;-86
2022/11/27 05:05:54;;;;;;;30.60;13.93;;;;;;;;;;5082314;28;20426;-85
2022/11/27 05:08:28;;;;;;;36.58;14.23;;;;;;;;;;5081131;28;20413;-86
2022/11/27 05:11:00;;;;;;;31.90;12.57;;;;;;;;;;5082130;28;20416;-85
2022/11/27 05:13:34;;;;;;;33.57;12.50;;;;;;;;;;5081394;28;20754;-85
2022/11/27 05:16:07;;;;;;;34.75;12.25;;;;;;;;;;5082881;28;20414;-85
2022/11/27 05:18:41;;;;;;;37.75;12.30;;;;;;;;;;5081961;28;20935;-85
2022/11/27 05:21:13;;;;;;;36.10;12.15;;;;;;;;;;5079972;28;20420;-86
2022/11/27 05:23:46;;;;;;;54.03;11.45;;;;;;;;;;5077494;28;20424;-86
2022/11/27 05:26:19;;;;;;;110.82;12.60;;;;;;;;;;5079800;28;20435;-84
2022/11/27 05:28:52;;;;;;;135.98;12.40;;;;;;;;;;5079342;28;20430;-86
2022/11/27 05:31:25;;;;;;;72.82;11.73;;;;;;;;;;5084046;28;20422;-86
2022/11/27 05:33:59;;;;;;;72.15;11.90;;;;;;;;;;5081522;28;20425;-85
2022/11/27 05:36:32;;;;;;;70.68;12.50;;;;;;;;;;5082746;28;20427;-85
2022/11/27 05:39:01;;;;;;;41.17;11.27;;;;;;;;;;5078947;28;20413;-86
2022/11/27 05:41:29;;;;;;;33.08;11.45;;;;;;;;;;5078931;28;20427;-85
2022/11/27 05:44:02;;;;;;;44.67;12.50;;;;;;;;;;5085030;28;20429;-84
2022/11/27 05:46:35;;;;;;;42.47;12.38;;;;;;;;;;5088326;28;20410;-85
2022/11/27 05:49:09;;;;;;;49.42;13.63;;;;;;;;;;5087207;28;20498;-85
2022/11/27 05:51:42;;;;;;;37.30;14.02;;;;;;;;;;5075742;28;20416;-85
2022/11/27 05:54:15;;;;;;;31.00;12.88;;;;;;;;;;5087742;28;20427;-85
2022/11/27 05:56:43;;;;;;;36.50;13.23;;;;;;;;;;5070418;28;20419;-85
2022/11/27 05:59:16;;;;;;;38.13;13.43;;;;;;;;;;5088110;28;20425;-85
2022/11/27 06:01:49;;;;;;;36.80;13.80;;;;;;;;;;5077918;28;20916;-84
2022/11/27 06:04:18;;;;;;;33.47;12.25;;;;;;;;;;5076277;28;21048;-86
2022/11/27 06:06:51;;;;;;;38.30;12.90;;;;;;;;;;5082013;28;20423;-85
2022/11/27 06:09:24;;;;;;;33.35;12.60;;;;;;;;;;5076565;28;20431;-85
2022/11/27 06:11:57;;;;;;;35.58;12.65;;;;;;;;;;5077157;28;21110;-86
2022/11/27 06:14:30;;;;;;;31.37;12.80;;;;;;;;;;5079019;28;20990;-85
2022/11/27 06:17:03;;;;;;;35.92;12.93;;;;;;;;;;5080093;28;20907;-86
2022/11/27 06:19:32;;;;;;;36.57;13.07;;;;;;;;;;5085118;28;20420;-85
2022/11/27 06:22:05;;;;;;;33.72;12.88;;;;;;;;;;5081273;28;20426;-86
2022/11/27 06:24:38;;;;;;;38.15;12.85;;;;;;;;;;5080155;28;20428;-84
2022/11/27 06:27:06;;;;;;;34.20;14.07;;;;;;;;;;5082707;28;21043;-85
2022/11/27 06:29:34;;;;;;;35.25;14.35;;;;;;;;;;5079798;28;20424;-86
2022/11/27 06:32:06;;;;;;;33.83;12.73;;;;;;;;;;5078088;28;20408;-85
2022/11/27 06:34:41;;;;;;;35.38;13.95;;;;;;;;;;5083636;28;20433;-84
2022/11/27 06:37:14;;;;;;;36.45;13.93;;;;;;;;;;5081126;28;20413;-84
2022/11/27 06:39:48;;;;;;;37.70;13.23;;;;;;;;;;5079125;28;21085;-85
2022/11/27 06:42:16;;;;;;;40.20;14.13;;;;;;;;;;5080762;28;20414;-86
2022/11/27 06:44:49;;;;;;;33.70;13.50;;;;;;;;;;5077215;28;20446;-85
2022/11/27 06:47:21;;;;;;;38.55;13.25;;;;;;;;;;5078093;28;20525;-85
2022/11/27 06:49:55;;;;;;;36.38;14.55;;;;;;;;;;5080160;28;20411;-85
2022/11/27 06:52:29;;;;;;;35.97;13.27;;;;;;;;;;5080031;28;20418;-85
2022/11/27 06:55:02;;;;;;;32.53;13.33;;;;;;;;;;5087029;28;20421;-85
2022/11/27 06:57:34;;;;;;;31.55;13.20;;;;;;;;;;5078698;28;20423;-85
2022/11/27 07:00:08;;;;;;;34.55;13.40;;;;;;;;;;5085573;28;20423;-85
2022/11/27 07:02:36;;;;;;;33.23;12.87;;;;;;;;;;5077562;28;20451;-85
2022/11/27 07:05:10;;;;;;;37.17;13.70;;;;;;;;;;5075085;28;20437;-85
2022/11/27 07:07:43;;;;;;;33.40;12.88;;;;;;;;;;5076855;28;20415;-84
2022/11/27 07:10:11;;;;;;;38.45;13.40;;;;;;;;;;5084105;28;20415;-84
2022/11/27 07:12:43;;;;;;;36.90;14.88;;;;;;;;;;5080889;28;20920;-85
2022/11/27 07:15:16;;;;;;;33.85;13.38;;;;;;;;;;5083546;28;20446;-86
2022/11/27 07:17:49;;;;;;;35.20;13.13;;;;;;;;;;5081305;28;20431;-85
2022/11/27 07:20:23;;;;;;;33.30;12.50;;;;;;;;;;5084091;28;20422;-85
2022/11/27 07:22:56;;;;;;;33.60;12.68;;;;;;;;;;5074336;28;20411;-85
2022/11/27 07:25:28;;;;;;;33.70;13.32;;;;;;;;;;5082524;28;20448;-85
2022/11/27 07:28:01;;;;;;;40.80;13.32;;;;;;;;;;5078566;28;20420;-86
2022/11/27 07:30:34;;;;;;;30.38;12.30;;;;;;;;;;5079195;28;20428;-84
2022/11/27 07:33:07;;;;;;;29.03;12.80;;;;;;;;;;5077852;28;20428;-86
2022/11/27 07:35:36;;;;;;;32.07;11.83;;;;;;;;;;5082523;28;20535;-86
2022/11/27 07:38:09;;;;;;;36.33;12.30;;;;;;;;;;5081535;28;20425;-85
2022/11/27 07:40:42;;;;;;;27.83;11.23;;;;;;;;;;5084692;28;20427;-86
2022/11/27 07:43:14;;;;;;;29.23;11.98;;;;;;;;;;5086658;28;20433;-85
2022/11/27 07:45:44;;;;;;;31.70;11.68;;;;;;;;;;5077575;28;20776;-86
2022/11/27 07:48:12;;;;;;;28.45;11.07;;;;;;;;;;5081432;28;20420;-85
2022/11/27 07:50:41;;;;;;;26.55;11.35;;;;;;;;;;5076180;28;20414;-86
2022/11/27 07:53:09;;;;;;;24.50;11.13;;;;;;;;;;5076706;28;20898;-84
2022/11/27 07:55:42;;;;;;;26.30;11.32;;;;;;;;;;5077197;28;20423;-85
2022/11/27 07:58:15;;;;;;;29.85;11.35;;;;;;;;;;5084556;28;20753;-85
2022/11/27 08:00:43;;;;;;;25.10;11.02;;;;;;;;;;5078871;28;20418;-85
2022/11/27 08:03:16;;;;;;;33.10;12.30;;;;;;;;;;5079018;28;20431;-85
2022/11/27 08:05:50;;;;;;;33.03;12.05;;;;;;;;;;5085376;28;20415;-85
2022/11/27 08:08:18;;;;;;;29.83;12.00;;;;;;;;;;5076066;28;20419;-85
2022/11/27 08:10:46;;;;;;;32.10;12.00;;;;;;;;;;5074581;28;20415;-86
2022/11/27 08:13:13;;;;;;;24.25;11.30;;;;;;;;;;5086070;28;20415;-86
2022/11/27 08:15:47;;;;;;;33.95;12.35;;;;;;;;;;5087325;28;20427;-85
2022/11/27 08:18:19;;;;;;;33.10;12.50;;;;;;;;;;5088396;28;20452;-86
2022/11/27 08:20:54;;;;;;;35.38;11.93;;;;;;;;;;5087906;28;20911;-85
2022/11/27 08:23:22;;;;;;;31.33;11.23;;;;;;;;;;5080184;28;20429;-85
2022/11/27 08:25:49;;;;;;;29.13;11.38;;;;;;;;;;5082072;28;20427;-85
2022/11/27 08:28:22;;;;;;;33.70;11.15;;;;;;;;;;5065038;28;20430;-83
2022/11/27 08:30:56;;;;;;;26.00;11.27;;;;;;;;;;5064811;28;21281;-81
2022/11/27 08:33:29;;;;;;;25.33;10.95;;;;;;;;;;5072068;28;20426;-82
2022/11/27 08:36:04;;;;;;;29.60;10.50;;;;;;;;;;5068644;28;20422;-82
2022/11/27 08:38:36;;;;;;;23.00;10.10;;;;;;;;;;5064788;28;20434;-84
2022/11/27 08:41:09;;;;;;;26.23;10.32;;;;;;;;;;5063884;28;20434;-85
2022/11/27 08:43:37;;;;;;;28.88;10.52;;;;;;;;;;5068118;28;20426;-85
2022/11/27 08:46:10;;;;;;;32.25;10.15;;;;;;;;;;5067879;28;20435;-84
2022/11/27 08:48:43;;;;;;;26.10;10.60;;;;;;;;;;5065969;28;20526;-84
2022/11/27 08:51:13;;;;;;;28.83;10.45;;;;;;;;;;5070232;28;21310;-83
2022/11/27 08:53:46;;;;;;;38.07;10.80;;;;;;;;;;5063299;28;20429;-83
2022/11/27 08:56:21;;;;;;;25.38;10.27;;;;;;;;;;5063111;28;20429;-81
2022/11/27 08:58:54;;;;;;;32.65;10.68;;;;;;;;;;5062570;28;20422;-82
2022/11/27 09:01:28;;;;;;;25.35;10.32;;;;;;;;;;5061100;28;20428;-84
2022/11/27 09:04:01;;;;;;;21.27;10.63;;;;;;;;;;5062610;28;20414;-82
2022/11/27 09:06:35;;;;;;;27.17;11.38;;;;;;;;;;5071562;28;20430;-86
2022/11/27 09:09:08;;;;;;;27.80;11.05;;;;;;;;;;5067574;28;20933;-84
2022/11/27 09:11:41;;;;;;;27.75;11.38;;;;;;;;;;5070073;28;21153;-82
2022/11/27 09:14:14;;;;;;;20.23;10.70;;;;;;;;;;5065184;28;20452;-83
2022/11/27 09:16:49;;;;;;;22.07;10.53;;;;;;;;;;5061351;28;22229;-82
2022/11/27 09:19:17;;;;;;;21.42;10.38;;;;;;;;;;5068084;28;20921;-84
2022/11/27 09:21:51;;;;;;;21.08;9.25;;;;;;;;;;5062123;28;20432;-82
2022/11/27 09:24:19;;;;;;;26.67;9.98;;;;;;;;;;5062391;28;20413;-83
2022/11/27 09:26:47;;;;;;;17.15;8.93;;;;;;;;;;5065864;28;20438;-83
2022/11/27 09:29:14;;;;;;;20.27;9.32;;;;;;;;;;5062808;28;21102;-83
2022/11/27 09:31:47;;;;;;;19.88;9.45;;;;;;;;;;5064576;28;20430;-82
2022/11/27 09:34:20;;;;;;;19.52;9.38;;;;;;;;;;5068299;28;20425;-83
2022/11/27 09:36:54;;;;;;;24.27;9.32;;;;;;;;;;5060285;28;20464;-82
2022/11/27 09:39:22;;;;;;;19.80;8.53;;;;;;;;;;5068615;28;20430;-82
2022/11/27 09:41:55;;;;;;;19.48;9.15;;;;;;;;;;5061660;28;21233;-82
2022/11/27 09:44:31;;;;;;;20.40;9.02;;;;;;;;;;5059813;28;20439;-82
2022/11/27 09:46:59;;;;;;;19.05;8.40;;;;;;;;;;5059766;28;20425;-82
2022/11/27 09:49:35;;;;;;;20.10;8.73;;;;;;;;;;5064353;28;20420;-83
2022/11/27 09:52:12;;;;;;;18.42;8.65;;;;;;;;;;5071147;28;20426;-82
2022/11/27 09:54:49;;;;;;;19.50;8.77;;;;;;;;;;5059833;28;20457;-82
2022/11/27 09:57:26;;;;;;;20.95;8.68;;;;;;;;;;5061695;28;20418;-83
2022/11/27 10:00:01;;;;;;;20.83;9.40;;;;;;;;;;5064085;28;20418;-82
2022/11/27 10:02:32;;;;;;;21.38;9.55;;;;;;;;;;5072688;28;20591;-81
2022/11/27 10:05:02;;;;;;;17.25;8.65;;;;;;;;;;5060255;28;20425;-83
2022/11/27 10:07:41;;;;;;;22.20;9.45;;;;;;;;;;5061389;28;20416;-81
2022/11/27 10:10:23;;;;;;;20.20;9.85;;;;;;;;;;5060157;28;20428;-82
2022/11/27 10:13:01;;;;;;;20.65;9.13;;;;;;;;;;5061807;28;21179;-82
2022/11/27 10:15:38;;;;;;;20.45;9.77;;;;;;;;;;5064773;28;20422;-81
2022/11/27 10:18:14;;;;;;;19.70;9.25;;;;;;;;;;5064952;28;20430;-84
2022/11/27 10:20:48;;;;;;;21.67;9.75;;;;;;;;;;5061658;28;20426;-82
2022/11/27 10:23:27;;;;;;;23.17;10.07;;;;;;;;;;5064969;28;20952;-83
2022/11/27 10:25:59;;;;;;;21.25;9.65;;;;;;;;;;5063827;28;20422;-82
2022/11/27 10:28:36;;;;;;;22.60;9.80;;;;;;;;;;5067461;28;20411;-83
2022/11/27 10:31:11;;;;;;;22.83;10.18;;;;;;;;;;5070744;28;20434;-83
2022/11/27 10:33:42;;;;;;;21.90;10.68;;;;;;;;;;5066539;28;20417;-83
2022/11/27 10:36:13;;;;;;;24.17;10.50;;;;;;;;;;5059371;28;20449;-85
2022/11/27 10:38:47;;;;;;;22.23;9.93;;;;;;;;;;5062961;28;20457;-83
2022/11/27 10:41:22;;;;;;;19.15;9.73;;;;;;;;;;5065711;28;20778;-82
2022/11/27 10:43:56;;;;;;;21.38;10.00;;;;;;;;;;5066445;28;20423;-82
2022/11/27 10:46:32;;;;;;;23.05;10.07;;;;;;;;;;5060395;28;20434;-82
2022/11/27 10:49:04;;;;;;;21.17;9.30;;;;;;;;;;5063159;28;20468;-82
2022/11/27 10:51:34;;;;;;;20.60;9.95;;;;;;;;;;5065969;28;20426;-82
2022/11/27 10:54:05;;;;;;;19.50;9.70;;;;;;;;;;5062121;28;20422;-82
2022/11/27 10:56:49;;;;;;;20.58;9.80;;;;;;;;;;5073631;28;20777;-83
2022/11/27 10:59:24;;;;;;;21.08;9.95;;;;;;;;;;5068290;28;20425;-82
2022/11/27 11:01:53;;;;;;;20.90;10.20;;;;;;;;;;5061578;28;20468;-82
2022/11/27 11:04:26;;;;;;;20.55;9.90;;;;;;;;;;5067307;28;20425;-82
2022/11/27 11:06:59;;;;;;;22.85;9.70;;;;;;;;;;5060284;28;20426;-83
2022/11/27 11:09:34;;;;;;;20.27;9.88;;;;;;;;;;5059005;28;20425;-83
2022/11/27 11:12:07;;;;;;;21.90;9.50;;;;;;;;;;5062040;28;20431;-82
2022/11/27 11:14:49;;;;;;;20.30;10.13;;;;;;;;;;5061233;28;20435;-83
2022/11/27 11:17:17;;;;;;;20.48;9.43;;;;;;;;;;5060809;28;20406;-82
2022/11/27 11:19:50;;;;;;;19.75;8.90;;;;;;;;;;5066097;28;20432;-81
2022/11/27 11:22:18;;;;;;;21.13;9.90;;;;;;;;;;5061760;28;20431;-83
2022/11/27 11:24:53;;;;;;;20.30;9.73;;;;;;;;;;5064125;28;20418;-82
2022/11/27 11:27:26;;;;;;;24.85;9.65;;;;;;;;;;5053460;28;20418;-83
2022/11/27 11:30:01;;;;;;;19.25;9.52;;;;;;;;;;5053591;28;20433;-82
2022/11/27 11:32:36;;;;;;;21.02;9.60;;;;;;;;;;5062773;28;20457;-83
2022/11/27 11:35:07;;;;;;;22.77;9.88;;;;;;;;;;5058310;28;20454;-82
2022/11/27 11:37:41;;;;;;;19.63;9.77;;;;;;;;;;5063480;28;20445;-82
2022/11/27 11:40:22;;;;;;;18.63;9.65;;;;;;;;;;5059044;28;20512;-84
2022/11/27 11:42:52;;;;;;;19.75;9.07;;;;;;;;;;5062385;28;21662;-81
2022/11/27 11:45:25;;;;;;;18.87;9.90;;;;;;;;;;5067372;28;20539;-83
2022/11/27 11:47:54;;;;;;;20.95;9.60;;;;;;;;;;5059583;28;20421;-82
2022/11/27 11:50:27;;;;;;;18.93;9.37;;;;;;;;;;5066790;28;20484;-81
2022/11/27 11:52:58;;;;;;;19.58;9.90;;;;;;;;;;5073619;28;20533;-84
2022/11/27 11:55:35;;;;;;;22.13;9.70;;;;;;;;;;5059756;28;20436;-83
2022/11/27 11:58:09;;;;;;;19.55;9.43;;;;;;;;;;5063110;28;20940;-83
2022/11/27 12:00:43;;;;;;;22.00;10.18;;;;;;;;;;5064871;28;20428;-83
2022/11/27 12:03:18;;;;;;;20.33;9.80;;;;;;;;;;5061239;28;21271;-84
2022/11/27 12:05:57;;;;;;;19.98;10.20;;;;;;;;;;5063345;28;20425;-83
2022/11/27 12:08:37;;;;;;;25.20;11.88;;;;;;;;;;5063377;28;20414;-83
2022/11/27 12:11:13;;;;;;;22.55;11.05;;;;;;;;;;5073398;28;20415;-83
2022/11/27 12:13:53;;;;;;;18.85;10.05;;;;;;;;;;5062131;28;21894;-84
2022/11/27 12:16:30;;;;;;;21.90;10.88;;;;;;;;;;5070167;28;20460;-81
2022/11/27 12:19:11;;;;;;;24.48;11.00;;;;;;;;;;5059181;28;20518;-83
2022/11/27 12:21:48;;;;;;;20.77;10.30;;;;;;;;;;5069491;28;20459;-82
2022/11/27 12:24:26;;;;;;;21.83;9.90;;;;;;;;;;5062193;28;20433;-83
2022/11/27 12:27:06;;;;;;;20.58;10.25;;;;;;;;;;5068783;28;20822;-83
2022/11/27 12:29:52;;;;;;;20.50;10.32;;;;;;;;;;5063422;28;20421;-82
2022/11/27 12:32:30;;;;;;;22.45;10.05;;;;;;;;;;5069427;28;20432;-84
2022/11/27 12:35:06;;;;;;;20.92;10.65;;;;;;;;;;5058733;28;20425;-81
2022/11/27 12:37:45;;;;;;;22.52;10.30;;;;;;;;;;5059591;28;20889;-82
2022/11/27 12:40:21;;;;;;;19.17;10.27;;;;;;;;;;5064933;28;20418;-83
2022/11/27 12:42:58;;;;;;;21.50;10.13;;;;;;;;;;5065438;28;20511;-82
2022/11/27 12:45:34;;;;;;;23.02;9.88;;;;;;;;;;5060407;28;20423;-83
2022/11/27 12:48:12;;;;;;;20.13;10.23;;;;;;;;;;5060765;28;20957;-84
2022/11/27 12:50:47;;;;;;;26.77;10.60;;;;;;;;;;5068978;28;21106;-84
2022/11/27 12:53:18;;;;;;;21.35;11.63;;;;;;;;;;5068087;28;20414;-82
2022/11/27 12:55:56;;;;;;;18.98;9.85;;;;;;;;;;5065490;28;20421;-82
2022/11/27 12:58:31;;;;;;;20.40;10.50;;;;;;;;;;5066904;28;21791;-83
2022/11/27 13:01:06;;;;;;;18.23;10.17;;;;;;;;;;5059722;28;20827;-82
2022/11/27 13:03:43;;;;;;;19.52;10.15;;;;;;;;;;5067386;28;20418;-85
2022/11/27 13:06:19;;;;;;;20.25;10.45;;;;;;;;;;5077382;28;21042;-82
2022/11/27 13:08:52;;;;;;;18.92;10.40;;;;;;;;;;5058726;28;20437;-81
2022/11/27 13:11:28;;;;;;;19.52;9.85;;;;;;;;;;5060534;28;20464;-83
2022/11/27 13:14:00;;;;;;;18.27;10.48;;;;;;;;;;5067018;28;20410;-82
2022/11/27 13:16:35;;;;;;;21.05;10.80;;;;;;;;;;5065098;28;20425;-82
2022/11/27 13:19:10;;;;;;;28.00;13.57;;;;;;;;;;5063481;28;20425;-82
2022/11/27 13:21:39;;;;;;;26.23;13.98;;;;;;;;;;5062338;28;20430;-83
2022/11/27 13:24:12;;;;;;;22.88;11.38;;;;;;;;;;5061426;28;20426;-82
2022/11/27 13:26:46;;;;;;;20.45;10.20;;;;;;;;;;5050761;28;20429;-82
2022/11/27 13:29:23;;;;;;;22.38;11.10;;;;;;;;;;5064209;28;20422;-82
2022/11/27 13:31:58;;;;;;;20.73;11.05;;;;;;;;;;5060500;28;21135;-86
2022/11/27 13:34:27;;;;;;;20.60;11.23;;;;;;;;;;5068266;28;22097;-83
2022/11/27 13:36:57;;;;;;;22.98;11.70;;;;;;;;;;5060766;28;20425;-85
2022/11/27 13:39:30;;;;;;;23.27;12.27;;;;;;;;;;5059973;28;20774;-84
2022/11/27 13:42:05;;;;;;;21.02;11.73;;;;;;;;;;5059952;28;20430;-84
2022/11/27 13:44:43;;;;;;;21.97;11.43;;;;;;;;;;5060259;28;20809;-84
2022/11/27 13:47:12;;;;;;;20.23;11.77;;;;;;;;;;5069439;28;20440;-84
2022/11/27 13:49:46;;;;;;;20.07;11.27;;;;;;;;;;5065637;28;20460;-84
2022/11/27 13:52:15;;;;;;;21.95;11.77;;;;;;;;;;5065931;28;21396;-84
2022/11/27 13:54:52;;;;;;;23.50;11.93;;;;;;;;;;5060893;28;20426;-83
2022/11/27 13:57:20;;;;;;;21.60;12.07;;;;;;;;;;5062175;28;20433;-83
2022/11/27 13:59:59;;;;;;;20.63;11.65;;;;;;;;;;5064308;28;20935;-83
2022/11/27 14:02:40;;;;;;;20.42;11.27;;;;;;;;;;5075663;28;20674;-83
2022/11/27 14:05:14;;;;;;;22.17;11.80;;;;;;;;;;5060754;28;20442;-83
2022/11/27 14:07:43;;;;;;;23.10;12.20;;;;;;;;;;5062749;28;20450;-84
2022/11/27 14:10:18;;;;;;;23.10;11.20;;;;;;;;;;5058429;28;20425;-84
2022/11/27 14:12:53;;;;;;;23.70;11.55;;;;;;;;;;5061931;28;20425;-85
2022/11/27 14:15:28;;;;;;;25.23;11.57;;;;;;;;;;5063615;28;20901;-84
2022/11/27 14:18:05;;;;;;;20.17;10.95;;;;;;;;;;5064462;28;20430;-83
2022/11/27 14:20:34;;;;;;;23.38;11.90;;;;;;;;;;5066101;28;20437;-83
2022/11/27 14:23:09;;;;;;;23.02;11.75;;;;;;;;;;5058705;28;20434;-83
2022/11/27 14:25:37;;;;;;;20.02;10.70;;;;;;;;;;5059080;28;20947;-84
2022/11/27 14:28:14;;;;;;;21.33;11.38;;;;;;;;;;5058291;28;20422;-84
2022/11/27 14:30:46;;;;;;;23.52;11.40;;;;;;;;;;5058506;28;20410;-83
2022/11/27 14:33:20;;;;;;;21.23;11.48;;;;;;;;;;5062396;28;20425;-84
2022/11/27 14:35:48;;;;;;;22.43;10.90;;;;;;;;;;5070705;28;20418;-85
2022/11/27 14:38:21;;;;;;;22.98;10.85;;;;;;;;;;5061528;28;20448;-84
2022/11/27 14:40:50;;;;;;;24.92;11.32;;;;;;;;;;5064040;28;20418;-83
2022/11/27 14:43:19;;;;;;;22.98;11.40;;;;;;;;;;5055590;28;20434;-83
2022/11/27 14:45:54;;;;;;;22.73;10.68;;;;;;;;;;5051407;28;20426;-84
2022/11/27 14:48:28;;;;;;;24.23;11.40;;;;;;;;;;5054710;28;20479;-84
2022/11/27 14:51:01;;;;;;;23.27;11.90;;;;;;;;;;5058468;28;20790;-84
2022/11/27 14:53:34;;;;;;;24.45;11.13;;;;;;;;;;5062326;28;20442;-84